Chrisanthi — SX7108 — position and weather

sailwx.info

Track history (hours):
 
Tides and Currents Weather Stations Pressure Air Temp Water Temp Dewpoint Dewpoint Depression Visibility Wind Speed Wind Dir Waves Ship Positions

Chrisanthi

Last reported at 2014-Oct-02 11:33 UTC. Time now 2014-Oct-02 12:26 UTC.
Position N 36°50' E 025°51'.

Length 56 m; draft 3.9 m.

Type: Tanker. MMSI: 237009100.

Date/timePositionNaut miles runAvg speedWind from/ knotsBaromVisibWave heightAir tempDewpointWater temp
2014-Oct-02 11:33N 36°50' E 025°51'1 0.2
2014-Oct-02 07:07N 36°50' E 025°52'0 0.0
2014-Oct-02 06:12N 36°50' E 025°52'6 9.1
2014-Oct-02 05:33N 36°51' E 025°45'10 9.6
2014-Oct-02 04:33N 36°54' E 025°33'10 9.7
2014-Oct-02 03:33N 36°58' E 025°22'10 9.9
2014-Oct-02 02:33N 37°07' E 025°19'1010.4
2014-Oct-02 01:33N 37°18' E 025°18'1010.0
2014-Oct-02 00:33N 37°28' E 025°19'1 0.7
2014-Oct-01 23:33N 37°28' E 025°19'0 0.0
2014-Oct-01 22:33N 37°28' E 025°19'0 0.0
2014-Oct-01 21:33N 37°28' E 025°19'0 0.0
2014-Oct-01 20:33N 37°28' E 025°19'0 0.0
2014-Oct-01 19:33N 37°28' E 025°19'0 0.0
2014-Oct-01 18:33N 37°28' E 025°19'3 2.9
2014-Oct-01 17:33N 37°26' E 025°17'9 9.2
2014-Oct-01 16:33N 37°17' E 025°14'10 9.6
2014-Oct-01 15:33N 37°08' E 025°08'3 3.0
2014-Oct-01 14:33N 37°05' E 025°09'1 0.5
2014-Oct-01 13:32N 37°05' E 025°08'0 0.0
2014-Oct-01 12:29N 37°05' E 025°08'0 0.0
2014-Oct-01 11:32N 37°06' E 025°08'0 0.0
2014-Oct-01 10:33N 37°05' E 025°08'1 0.5
2014-Oct-01 09:33N 37°05' E 025°09'1 0.5
2014-Oct-01 08:31N 37°06' E 025°08'0 0.0
2014-Oct-01 07:33N 37°05' E 025°08'1 0.6
2014-Oct-01 06:33N 37°05' E 025°09'1 1.4
2014-Oct-01 05:32N 37°05' E 025°07'9 9.4
2014-Oct-01 04:33N 37°10' E 025°17'7 6.8
2014-Oct-01 03:34N 37°04' E 025°20'0 0.0
2014-Oct-01 02:34N 37°04' E 025°20'0 0.0
2014-Oct-01 01:33N 37°04' E 025°20'0 0.0
2014-Oct-01 00:33N 37°04' E 025°20'0 0.0
2014-Sep-30 23:33N 37°04' E 025°20'0 0.0
2014-Sep-30 22:33N 37°04' E 025°20'0 0.0
2014-Sep-30 21:33N 37°04' E 025°20'3 2.6
2014-Sep-30 20:33N 37°06' E 025°22'0 0.1
2014-Sep-30 19:33N 37°06' E 025°22'0 0.0
2014-Sep-30 18:33N 37°06' E 025°22'0 0.0
2014-Sep-30 17:33N 37°06' E 025°22'0 0.1
2014-Sep-30 16:33N 37°06' E 025°22'7 7.1
2014-Sep-30 15:33N 37°00' E 025°18'9 9.4
2014-Sep-30 14:33N 36°51' E 025°17'8 8.4
2014-Sep-30 13:33N 36°43' E 025°15'2 1.6
2014-Sep-30 12:33N 36°43' E 025°16'1 1.1
2014-Sep-30 11:33N 36°42' E 025°16'8 8.1
2014-Sep-30 10:34N 36°35' E 025°19'1010.1
2014-Sep-30 09:33N 36°25' E 025°24'2 2.5
2014-Sep-30 08:33N 36°23' E 025°26'0 0.0
2014-Sep-30 07:33N 36°23' E 025°26'0 0.0
2014-Sep-30 06:33N 36°23' E 025°26'0 0.0
2014-Sep-30 05:33N 36°23' E 025°26'1 0.7
2014-Sep-30 04:33N 36°23' E 025°25'3 3.3
2014-Sep-30 03:33N 36°21' E 025°22'0 0.0
2014-Sep-30 02:32N 36°21' E 025°22'0 0.0
2014-Sep-30 01:33N 36°21' E 025°22'0 0.0
2014-Sep-30 00:33N 36°21' E 025°22'0 0.0
2014-Sep-29 23:33N 36°21' E 025°22'0 0.0
2014-Sep-29 22:33N 36°21' E 025°22'0 0.0
2014-Sep-29 21:33N 36°21' E 025°22'2 2.3
2014-Sep-29 20:33N 36°20' E 025°25'1010.1
2014-Sep-29 19:33N 36°23' E 025°36'1010.3
2014-Sep-29 18:33N 36°27' E 025°48'1010.1
2014-Sep-29 17:33N 36°29' E 026°01'1010.2
2014-Sep-29 16:33N 36°30' E 026°13'  
2014-Sep-25 06:24N 37°04' E 026°16'1410.7
2014-Sep-25 05:08N 37°08' E 025°59'811.0
2014-Sep-25 04:26N 37°10' E 025°50'1410.5
2014-Sep-25 03:07N 37°13' E 025°33'5 9.5
2014-Sep-25 02:33N 37°15' E 025°27'1010.3
2014-Sep-25 01:33N 37°17' E 025°14'1010.4
2014-Sep-25 00:33N 37°19' E 025°02'1110.3
2014-Sep-24 23:30N 37°22' E 024°48'5110.2
2014-Sep-24 18:28N 37°38' E 023°47'9 9.5
2014-Sep-24 17:33N 37°44' E 023°40'10 9.6
2014-Sep-24 16:34N 37°50' E 023°30'8 0.6
2014-Sep-24 02:28N 37°53' E 023°20'1010.5
2014-Sep-24 01:34N 37°50' E 023°32'10 9.7
2014-Sep-24 00:33N 37°45' E 023°43'61 2.2
2014-Sep-22 21:21N 37°31' E 024°57'810.2
2014-Sep-22 20:33N 37°24' E 025°01'1010.3
2014-Sep-22 19:33N 37°14' E 025°05'9 3.8
2014-Sep-22 17:06N 37°05' E 025°09'0 0.0
2014-Sep-22 16:31N 37°05' E 025°09'0 0.0
2014-Sep-22 15:32N 37°05' E 025°09'0 0.0
2014-Sep-22 14:33N 37°05' E 025°09'0 0.0
2014-Sep-22 13:33N 37°05' E 025°09'0 0.0
2014-Sep-22 12:33N 37°05' E 025°09'  
Track history (hours):
 
Tides and Currents Weather Stations Pressure Air Temp Water Temp Dewpoint Dewpoint Depression Visibility Wind Speed Wind Dir Waves Ship Positions

Chrisanthi

Last reported at 2014-Oct-02 11:33 UTC. Time now 2014-Oct-02 12:26 UTC.
Position N 36°50' E 025°51'.

Length 56 m; draft 3.9 m.

Type: Tanker. MMSI: 237009100.

Date/timePositionNaut miles runAvg speedWind from/ knotsBaromVisibWave heightAir tempDewpointWater temp
2014-Oct-02 11:33N 36°50' E 025°51'1 0.2
2014-Oct-02 07:07N 36°50' E 025°52'0 0.0
2014-Oct-02 06:12N 36°50' E 025°52'6 9.1
2014-Oct-02 05:33N 36°51' E 025°45'10 9.6
2014-Oct-02 04:33N 36°54' E 025°33'10 9.7
2014-Oct-02 03:33N 36°58' E 025°22'10 9.9
2014-Oct-02 02:33N 37°07' E 025°19'1010.4
2014-Oct-02 01:33N 37°18' E 025°18'1010.0
2014-Oct-02 00:33N 37°28' E 025°19'1 0.7
2014-Oct-01 23:33N 37°28' E 025°19'0 0.0
2014-Oct-01 22:33N 37°28' E 025°19'0 0.0
2014-Oct-01 21:33N 37°28' E 025°19'0 0.0
2014-Oct-01 20:33N 37°28' E 025°19'0 0.0
2014-Oct-01 19:33N 37°28' E 025°19'0 0.0
2014-Oct-01 18:33N 37°28' E 025°19'3 2.9
2014-Oct-01 17:33N 37°26' E 025°17'9 9.2
2014-Oct-01 16:33N 37°17' E 025°14'10 9.6
2014-Oct-01 15:33N 37°08' E 025°08'3 3.0
2014-Oct-01 14:33N 37°05' E 025°09'1 0.5
2014-Oct-01 13:32N 37°05' E 025°08'0 0.0
2014-Oct-01 12:29N 37°05' E 025°08'0 0.0
2014-Oct-01 11:32N 37°06' E 025°08'0 0.0
2014-Oct-01 10:33N 37°05' E 025°08'1 0.5
2014-Oct-01 09:33N 37°05' E 025°09'1 0.5
2014-Oct-01 08:31N 37°06' E 025°08'0 0.0
2014-Oct-01 07:33N 37°05' E 025°08'1 0.6
2014-Oct-01 06:33N 37°05' E 025°09'1 1.4
2014-Oct-01 05:32N 37°05' E 025°07'9 9.4
2014-Oct-01 04:33N 37°10' E 025°17'7 6.8
2014-Oct-01 03:34N 37°04' E 025°20'0 0.0
2014-Oct-01 02:34N 37°04' E 025°20'0 0.0
2014-Oct-01 01:33N 37°04' E 025°20'0 0.0
2014-Oct-01 00:33N 37°04' E 025°20'0 0.0
2014-Sep-30 23:33N 37°04' E 025°20'0 0.0
2014-Sep-30 22:33N 37°04' E 025°20'0 0.0
2014-Sep-30 21:33N 37°04' E 025°20'3 2.6
2014-Sep-30 20:33N 37°06' E 025°22'0 0.1
2014-Sep-30 19:33N 37°06' E 025°22'0 0.0
2014-Sep-30 18:33N 37°06' E 025°22'0 0.0
2014-Sep-30 17:33N 37°06' E 025°22'0 0.1
2014-Sep-30 16:33N 37°06' E 025°22'7 7.1
2014-Sep-30 15:33N 37°00' E 025°18'9 9.4
2014-Sep-30 14:33N 36°51' E 025°17'8 8.4
2014-Sep-30 13:33N 36°43' E 025°15'2 1.6
2014-Sep-30 12:33N 36°43' E 025°16'1 1.1
2014-Sep-30 11:33N 36°42' E 025°16'8 8.1
2014-Sep-30 10:34N 36°35' E 025°19'1010.1
2014-Sep-30 09:33N 36°25' E 025°24'2 2.5
2014-Sep-30 08:33N 36°23' E 025°26'0 0.0
2014-Sep-30 07:33N 36°23' E 025°26'0 0.0
2014-Sep-30 06:33N 36°23' E 025°26'0 0.0
2014-Sep-30 05:33N 36°23' E 025°26'1 0.7
2014-Sep-30 04:33N 36°23' E 025°25'3 3.3
2014-Sep-30 03:33N 36°21' E 025°22'0 0.0
2014-Sep-30 02:32N 36°21' E 025°22'0 0.0
2014-Sep-30 01:33N 36°21' E 025°22'0 0.0
2014-Sep-30 00:33N 36°21' E 025°22'0 0.0
2014-Sep-29 23:33N 36°21' E 025°22'0 0.0
2014-Sep-29 22:33N 36°21' E 025°22'0 0.0
2014-Sep-29 21:33N 36°21' E 025°22'2 2.3
2014-Sep-29 20:33N 36°20' E 025°25'1010.1
2014-Sep-29 19:33N 36°23' E 025°36'1010.3
2014-Sep-29 18:33N 36°27' E 025°48'1010.1
2014-Sep-29 17:33N 36°29' E 026°01'1010.2
2014-Sep-29 16:33N 36°30' E 026°13'  
2014-Sep-25 06:24N 37°04' E 026°16'1410.7
2014-Sep-25 05:08N 37°08' E 025°59'811.0
2014-Sep-25 04:26N 37°10' E 025°50'1410.5
2014-Sep-25 03:07N 37°13' E 025°33'5 9.5
2014-Sep-25 02:33N 37°15' E 025°27'1010.3
2014-Sep-25 01:33N 37°17' E 025°14'1010.4
2014-Sep-25 00:33N 37°19' E 025°02'1110.3
2014-Sep-24 23:30N 37°22' E 024°48'5110.2
2014-Sep-24 18:28N 37°38' E 023°47'9 9.5
2014-Sep-24 17:33N 37°44' E 023°40'10 9.6
2014-Sep-24 16:34N 37°50' E 023°30'8 0.6
2014-Sep-24 02:28N 37°53' E 023°20'1010.5
2014-Sep-24 01:34N 37°50' E 023°32'10 9.7
2014-Sep-24 00:33N 37°45' E 023°43'61 2.2
2014-Sep-22 21:21N 37°31' E 024°57'810.2
2014-Sep-22 20:33N 37°24' E 025°01'1010.3
2014-Sep-22 19:33N 37°14' E 025°05'9 3.8
2014-Sep-22 17:06N 37°05' E 025°09'0 0.0
2014-Sep-22 16:31N 37°05' E 025°09'0 0.0
2014-Sep-22 15:32N 37°05' E 025°09'0 0.0
2014-Sep-22 14:33N 37°05' E 025°09'0 0.0
2014-Sep-22 13:33N 37°05' E 025°09'0 0.0
2014-Sep-22 12:33N 37°05' E 025°09'  

Dump ship's entire track history